Time;durP1;ratioP1;P1;durP2;ratioP2;P2;SDS_P1;SDS_P2;PMS_P1;PMS_P2;Temp;Humidity;BMP_temperature;BMP_pressure;BME280_temperature;BME280_humidity;BME280_pressure;Samples;Min_cycle;Max_cycle;Signal;HPM_P1;HPM_P2
2023/12/19 07:42:05;;;;;;;2.77;1.37;;;6.70;99.90;;;;;;5059420;23;20184;-96
2023/12/19 08:09:33;;;;;;;;;;;;;;;;;;;;;
2023/12/19 09:32:02;;;;;;;3.55;1.77;;;7.20;99.90;;;;;;4915137;24;20163;-96
2023/12/19 11:47:55;;;;;;;;;;;;;;;;;;;;;
2023/12/19 11:57:40;;;;;;;3.55;2.15;;;7.60;99.90;;;;;;5049005;23;20270;-96
2023/12/19 12:00:30;;;;;;;3.35;1.77;;;7.60;99.90;;;;;;5027187;23;20229;-95
2023/12/19 12:03:28;;;;;;;8.47;2.60;;;7.60;99.90;;;;;;5002892;23;20333;-95
2023/12/19 12:05:49;;;;;;;8.02;2.63;;;7.50;99.90;;;;;;5013053;23;20210;-95
2023/12/19 12:08:42;;;;;;;5.25;2.72;;;7.60;99.90;;;;;;4992938;23;20236;-95
2023/12/19 12:14:33;;;;;;;8.13;3.35;;;7.70;99.90;;;;;;5032956;23;20194;-96
2023/12/19 12:17:34;;;;;;;;;;;;;;;;;;;;;
2023/12/19 12:20:01;;;;;;;7.60;2.85;;;7.60;99.90;;;;;;5025844;23;20199;-95
2023/12/19 12:22:48;;;;;;;3.63;2.17;;;7.80;99.90;;;;;;4980315;23;20156;-96
2023/12/19 12:25:01;;;;;;;4.80;2.03;;;7.70;99.90;;;;;;4912826;24;20618;-96
2023/12/19 12:27:56;;;;;;;4.70;1.92;;;7.70;99.90;;;;;;4977629;23;20156;-96
2023/12/19 12:30:31;;;;;;;;;;;;;;;;;;;;;
2023/12/19 12:33:07;;;;;;;3.23;1.37;;;7.60;99.90;;;;;;5004729;23;20223;-96
2023/12/19 12:36:12;;;;;;;4.53;2.70;;;7.70;99.90;;;;;;4983005;23;20160;-96
2023/12/19 12:38:27;;;;;;;10.93;4.05;;;7.70;99.90;;;;;;4929944;24;20157;-95
2023/12/19 12:45:06;;;;;;;4.43;2.58;;;7.80;99.90;;;;;;4885816;24;20178;-96
2023/12/19 12:47:50;;;;;;;6.40;2.55;;;7.60;99.90;;;;;;4884116;24;20171;-96
2023/12/19 12:54:41;;;;;;;;;;;;;;;;;;;;;
2023/12/19 13:00:32;;;;;;;;;;;;;;;;;;;;;
2023/12/19 13:03:31;;;;;;;3.85;2.03;;;7.60;99.90;;;;;;4943770;24;20724;-96
2023/12/19 13:09:29;;;;;;;7.43;2.90;;;7.60;99.90;;;;;;5018039;23;20151;-96
2023/12/19 13:20:26;;;;;;;6.00;2.83;;;7.50;99.90;;;;;;4988710;23;20203;-95
2023/12/19 13:26:02;;;;;;;10.23;3.03;;;7.60;99.90;;;;;;5016826;23;20179;-95
2023/12/19 13:28:19;;;;;;;;;;;;;;;;;;;;;
2023/12/19 13:30:59;;;;;;;;;;;;;;;;;;;;;
2023/12/19 13:33:35;;;;;;;7.95;2.67;;;7.50;99.90;;;;;;5000428;23;20175;-96
2023/12/19 13:36:42;;;;;;;9.60;3.20;;;7.50;99.90;;;;;;4980912;23;20182;-96
2023/12/19 13:39:20;;;;;;;5.30;2.43;;;7.60;99.90;;;;;;4999915;23;20163;-95
2023/12/19 13:41:58;;;;;;;;;;;;;;;;;;;;;
2023/12/19 13:44:23;;;;;;;8.93;3.97;;;7.60;99.90;;;;;;5000925;23;20245;-96
2023/12/19 13:50:12;;;;;;;5.18;2.92;;;7.60;99.90;;;;;;4979209;23;20160;-95
2023/12/19 13:52:42;;;;;;;7.83;3.40;;;7.60;99.90;;;;;;4969312;23;20190;-96
2023/12/19 13:55:12;;;;;;;7.55;3.83;;;7.60;99.90;;;;;;4972698;23;20242;-96
2023/12/19 13:57:41;;;;;;;3.10;1.85;;;7.60;99.90;;;;;;4977831;23;20164;-96
2023/12/19 14:03:24;;;;;;;6.68;2.97;;;7.60;99.90;;;;;;5003298;23;20604;-95
2023/12/19 14:06:24;;;;;;;4.47;2.00;;;7.70;99.90;;;;;;4876285;24;20712;-96
2023/12/19 14:20:55;;;;;;;7.47;2.77;;;7.70;99.90;;;;;;4821573;24;20175;-94
2023/12/19 14:23:30;;;;;;;5.95;3.22;;;7.70;99.90;;;;;;4818541;24;20188;-96
2023/12/19 14:29:31;;;;;;;5.57;2.55;;;7.70;99.90;;;;;;4848049;24;20179;-96
2023/12/19 14:34:18;;;;;;;9.38;4.30;;;7.80;99.90;;;;;;4916640;24;20605;-95
2023/12/19 14:37:00;;;;;;;;;;;;;;;;;;;;;
2023/12/19 14:39:58;;;;;;;3.43;1.90;;;7.90;99.90;;;;;;4982709;23;20233;-94
2023/12/19 14:42:25;;;;;;;4.40;2.28;;;7.80;99.90;;;;;;4987864;23;20155;-96
2023/12/19 14:44:50;;;;;;;7.38;3.22;;;7.90;99.90;;;;;;4978693;23;20219;-96
2023/12/19 14:47:43;;;;;;;7.82;2.63;;;7.90;99.90;;;;;;5000316;23;20162;-96
2023/12/19 14:50:10;;;;;;;8.73;3.83;;;7.90;99.90;;;;;;4963345;23;20240;-96
2023/12/19 14:52:24;;;;;;;8.02;2.80;;;7.90;99.90;;;;;;5000024;23;20208;-94
2023/12/19 14:54:36;;;;;;;6.40;3.45;;;7.90;99.90;;;;;;4977181;23;20156;-96
2023/12/19 14:57:14;;;;;;;6.15;2.72;;;7.90;99.90;;;;;;5002047;23;20186;-96
2023/12/19 14:59:58;;;;;;;10.82;4.32;;;8.00;99.90;;;;;;4993713;23;20612;-96
2023/12/19 15:02:36;;;;;;;12.68;4.03;;;8.00;99.90;;;;;;5001160;23;20215;-96
2023/12/19 15:05:28;;;;;;;;;;;;;;;;;;;;;
2023/12/19 15:08:36;;;;;;;8.00;3.75;;;8.10;99.90;;;;;;4973393;23;20190;-96
2023/12/19 15:11:08;;;;;;;;;;;;;;;;;;;;;
2023/12/19 15:17:09;;;;;;;9.82;4.47;;;8.10;99.90;;;;;;5003810;23;20162;-95
2023/12/19 15:19:34;;;;;;;5.15;2.38;;;8.20;99.90;;;;;;5001292;23;20187;-96
2023/12/19 15:22:20;;;;;;;7.05;3.53;;;8.30;99.90;;;;;;5003539;23;20162;-95
2023/12/19 15:24:40;;;;;;;6.15;3.15;;;8.30;99.90;;;;;;4984886;23;20218;-94
2023/12/19 15:27:09;;;;;;;5.50;3.00;;;8.40;99.90;;;;;;4977252;23;20623;-96
2023/12/19 15:29:39;;;;;;;9.02;2.45;;;8.40;99.90;;;;;;5023305;23;20154;-96
2023/12/19 15:32:16;;;;;;;16.98;3.03;;;8.30;99.90;;;;;;5004461;23;20625;-96
2023/12/19 15:34:40;;;;;;;8.27;3.72;;;8.30;99.90;;;;;;5002675;23;20170;-96
2023/12/19 15:36:59;;;;;;;7.13;4.50;;;8.20;99.90;;;;;;4997974;23;20151;-95
2023/12/19 15:39:25;;;;;;;6.97;3.70;;;8.30;99.90;;;;;;4973911;23;20192;-95
2023/12/19 15:42:10;;;;;;;8.10;4.07;;;8.30;99.90;;;;;;4974703;23;20638;-95
2023/12/19 15:44:38;;;;;;;4.97;2.35;;;8.40;99.90;;;;;;4974241;23;20179;-94
2023/12/19 15:46:57;;;;;;;6.65;3.15;;;8.30;99.90;;;;;;5017689;23;20245;-93
2023/12/19 15:49:12;;;;;;;8.98;3.83;;;8.40;99.90;;;;;;4999456;23;20168;-96
2023/12/19 15:51:56;;;;;;;5.22;3.13;;;8.30;99.90;;;;;;5022492;23;20161;-95
2023/12/19 15:54:02;;;;;;;9.52;3.30;;;8.40;99.90;;;;;;4947562;23;20197;-96
2023/12/19 15:56:06;;;;;;;6.82;2.95;;;8.40;99.90;;;;;;4998614;23;20262;-95
2023/12/19 15:58:07;;;;;;;5.65;3.67;;;8.50;99.90;;;;;;4999477;23;20158;-96
2023/12/19 16:00:18;;;;;;;8.50;3.30;;;8.50;99.90;;;;;;4976142;23;20198;-96
2023/12/19 16:02:30;;;;;;;11.07;4.07;;;8.40;99.90;;;;;;4975200;23;20164;-94
2023/12/19 16:04:50;;;;;;;9.43;2.92;;;8.50;99.90;;;;;;4978461;23;20247;-96
2023/12/19 16:06:53;;;;;;;8.40;3.60;;;8.60;99.90;;;;;;4977739;23;20152;-95
2023/12/19 16:09:18;;;;;;;7.25;4.00;;;8.70;99.90;;;;;;4979643;23;20156;-96
2023/12/19 16:11:24;;;;;;;22.95;3.40;;;8.70;99.90;;;;;;4980113;23;20475;-95
2023/12/19 16:13:25;;;;;;;7.63;3.92;;;8.80;99.90;;;;;;5000761;23;20555;-96
2023/12/19 16:15:39;;;;;;;5.65;2.55;;;8.80;99.90;;;;;;4979233;23;20172;-96
2023/12/19 16:17:57;;;;;;;8.75;4.68;;;8.80;99.90;;;;;;4983204;23;20284;-96
2023/12/19 16:20:10;;;;;;;7.38;4.05;;;8.80;99.90;;;;;;5004549;23;20194;-96
2023/12/19 16:22:11;;;;;;;9.18;3.55;;;8.80;99.90;;;;;;4982814;23;20147;-95
2023/12/19 16:24:17;;;;;;;4.57;2.78;;;8.80;99.90;;;;;;4980615;23;20163;-95
2023/12/19 16:26:34;;;;;;;5.68;1.70;;;8.90;99.90;;;;;;4979961;23;20180;-95
2023/12/19 16:28:59;;;;;;;4.63;2.03;;;9.00;99.90;;;;;;4980105;23;20156;-95
2023/12/19 16:31:33;;;;;;;6.65;3.30;;;8.90;99.90;;;;;;4980770;23;20153;-96
2023/12/19 16:33:39;;;;;;;6.45;3.95;;;9.00;99.90;;;;;;4980950;23;20159;-96
2023/12/19 16:35:42;;;;;;;7.38;3.03;;;9.00;99.90;;;;;;5024218;23;20235;-95
2023/12/19 16:37:48;;;;;;;7.50;3.10;;;8.90;99.90;;;;;;4983359;23;20224;-96
2023/12/19 16:39:53;;;;;;;9.68;3.60;;;9.00;99.90;;;;;;4983784;23;20290;-95
2023/12/19 16:42:00;;;;;;;5.68;2.63;;;9.10;99.90;;;;;;4987696;23;20168;-94
2023/12/19 16:44:22;;;;;;;;;;;;;;;;;;;;;
2023/12/19 16:46:40;;;;;;;3.85;2.22;;;9.10;99.90;;;;;;5004371;23;20171;-96
2023/12/19 16:49:05;;;;;;;;;;;;;;;;;;;;;
2023/12/19 16:51:19;;;;;;;5.22;2.65;;;9.10;99.90;;;;;;5006395;23;20152;-95
2023/12/19 16:53:50;;;;;;;6.85;2.78;;;9.20;99.90;;;;;;5008945;23;20151;-95
2023/12/19 16:56:12;;;;;;;5.10;3.13;;;9.30;99.90;;;;;;4987491;23;20305;-96
2023/12/19 16:58:17;;;;;;;8.40;4.68;;;9.30;99.90;;;;;;5011126;23;20188;-96
2023/12/19 17:00:26;;;;;;;3.85;2.60;;;9.30;99.90;;;;;;4987717;23;20275;-95
2023/12/19 17:02:27;;;;;;;4.80;3.13;;;9.40;99.90;;;;;;4984201;23;20319;-95
2023/12/19 17:04:46;;;;;;;2.88;2.03;;;9.30;99.90;;;;;;4982280;23;20196;-95
2023/12/19 17:06:56;;;;;;;7.20;3.67;;;9.20;99.90;;;;;;5005975;23;20595;-96
2023/12/19 17:09:06;;;;;;;7.20;3.63;;;9.30;99.90;;;;;;5008983;23;20152;-95
2023/12/19 17:11:16;;;;;;;6.75;4.00;;;9.30;99.90;;;;;;5008165;23;20686;-94
2023/12/19 17:13:42;;;;;;;17.15;7.05;;;9.30;99.90;;;;;;5012810;23;20140;-96
2023/12/19 17:15:49;;;;;;;8.38;3.72;;;9.40;99.90;;;;;;5008805;23;20175;-94
2023/12/19 17:17:52;;;;;;;8.25;5.43;;;9.40;99.90;;;;;;5009633;23;20143;-95
2023/12/19 17:20:04;;;;;;;7.40;4.63;;;9.40;99.90;;;;;;5009561;23;20226;-96
2023/12/19 17:22:10;;;;;;;8.65;5.47;;;9.40;99.90;;;;;;4987174;23;20156;-95
2023/12/19 17:24:11;;;;;;;13.27;7.60;;;9.40;99.90;;;;;;5010371;23;20156;-95
2023/12/19 17:26:23;;;;;;;14.98;8.20;;;9.40;99.90;;;;;;4988072;23;20195;-94
2023/12/19 17:28:26;;;;;;;6.00;3.35;;;9.30;99.90;;;;;;4988303;23;20156;-96
2023/12/19 17:30:30;;;;;;;10.38;5.65;;;9.50;99.90;;;;;;5011834;23;20159;-95
2023/12/19 17:32:45;;;;;;;12.77;7.30;;;9.50;99.90;;;;;;5011330;23;20155;-96
2023/12/19 17:34:51;;;;;;;6.13;3.30;;;9.50;99.90;;;;;;4991794;23;20160;-96
2023/12/19 17:36:55;;;;;;;3.92;2.70;;;9.50;99.90;;;;;;5015844;23;20155;-94
2023/12/19 17:39:17;;;;;;;6.88;3.08;;;9.70;99.90;;;;;;5016099;23;20195;-95
2023/12/19 17:41:20;;;;;;;6.78;2.97;;;9.80;99.90;;;;;;5014999;23;20163;-95
2023/12/19 17:43:24;;;;;;;4.82;2.67;;;9.60;99.90;;;;;;5014723;23;20159;-96
2023/12/19 17:45:37;;;;;;;5.25;2.70;;;9.50;99.90;;;;;;5015860;23;20175;-94
2023/12/19 17:47:59;;;;;;;6.47;3.10;;;9.60;99.90;;;;;;5015934;23;20162;-95
2023/12/19 17:50:40;;;;;;;8.02;3.28;;;9.60;99.90;;;;;;5016883;23;20158;-95
2023/12/19 17:53:26;;;;;;;;;;;;;;;;;;;;;
2023/12/19 17:55:59;;;;;;;4.35;3.10;;;10.60;99.90;;;;;;5023228;23;20630;-96
2023/12/19 17:58:11;;;;;;;7.80;3.50;;;10.80;99.90;;;;;;4991426;23;20203;-95
2023/12/19 18:00:35;;;;;;;5.80;3.58;;;10.90;99.90;;;;;;5037474;23;20202;-96
2023/12/19 18:02:57;;;;;;;5.28;2.78;;;10.80;99.90;;;;;;5000734;23;20171;-94
2023/12/19 18:05:27;;;;;;;6.28;3.30;;;10.70;99.90;;;;;;5002940;23;20191;-96
2023/12/19 18:08:42;;;;;;;;;;;;;;;;;;;;;
2023/12/19 18:11:22;;;;;;;6.90;3.60;;;10.20;99.90;;;;;;5037185;23;20179;-96
2023/12/19 18:17:19;;;;;;;4.90;3.10;;;10.10;99.90;;;;;;5009941;23;20143;-96
2023/12/19 18:19:40;;;;;;;5.55;3.05;;;10.10;99.90;;;;;;5018007;23;20210;-96
2023/12/19 18:22:28;;;;;;;5.70;3.08;;;10.00;99.90;;;;;;5020000;23;20161;-95
2023/12/19 18:24:41;;;;;;;7.90;3.13;;;10.10;99.90;;;;;;4980058;23;20164;-96
2023/12/19 18:27:22;;;;;;;5.40;3.00;;;10.20;99.90;;;;;;5013311;23;20516;-96
2023/12/19 18:29:36;;;;;;;7.45;2.88;;;10.20;99.90;;;;;;5015550;23;20155;-96
2023/12/19 18:32:09;;;;;;;2.80;2.03;;;10.30;99.90;;;;;;5039952;23;20151;-96
2023/12/19 18:34:51;;;;;;;4.85;3.05;;;10.10;99.90;;;;;;5015633;23;20159;-95
2023/12/19 18:37:00;;;;;;;3.38;2.47;;;10.20;99.90;;;;;;4993126;23;20168;-96
2023/12/19 18:39:10;;;;;;;4.20;2.42;;;10.00;99.90;;;;;;5015409;23;20210;-96
2023/12/19 18:41:49;;;;;;;4.07;2.63;;;10.00;99.90;;;;;;4995055;23;20502;-95
2023/12/19 18:44:19;;;;;;;3.88;2.33;;;9.90;99.90;;;;;;5020028;23;20151;-95
2023/12/19 18:46:36;;;;;;;7.43;2.85;;;9.70;99.90;;;;;;5012476;23;20179;-96
2023/12/19 18:48:46;;;;;;;8.63;3.38;;;9.80;99.90;;;;;;4993097;23;20151;-95
2023/12/19 18:51:10;;;;;;;7.10;3.38;;;9.90;99.90;;;;;;5021107;23;20183;-96
2023/12/19 18:53:14;;;;;;;7.15;3.15;;;9.90;99.90;;;;;;4997717;23;20140;-95
2023/12/19 18:55:22;;;;;;;3.35;1.88;;;9.90;99.90;;;;;;5012421;23;20171;-95
2023/12/19 18:57:24;;;;;;;4.53;2.33;;;10.00;99.90;;;;;;5019582;23;20159;-96
2023/12/19 18:59:31;;;;;;;2.97;2.03;;;10.10;99.90;;;;;;5020485;23;20207;-95
2023/12/19 19:01:35;;;;;;;5.18;3.15;;;10.10;99.90;;;;;;5015589;23;20175;-95
2023/12/19 19:03:54;;;;;;;3.92;2.28;;;10.10;99.90;;;;;;4992995;23;20157;-96
2023/12/19 19:06:19;;;;;;;4.28;2.47;;;10.20;99.90;;;;;;5014362;23;20199;-96
2023/12/19 19:08:21;;;;;;;8.30;2.78;;;10.10;99.90;;;;;;4991886;23;20156;-96
2023/12/19 19:10:27;;;;;;;4.50;2.75;;;10.20;99.90;;;;;;4991108;23;20192;-95
2023/12/19 19:12:31;;;;;;;7.95;3.63;;;10.20;99.90;;;;;;5014235;23;20228;-96
2023/12/19 19:14:36;;;;;;;12.50;4.28;;;10.20;99.90;;;;;;4989313;23;20164;-95
2023/12/19 19:16:39;;;;;;;6.72;3.13;;;10.20;99.90;;;;;;5010365;23;20151;-96
2023/12/19 19:18:45;;;;;;;6.47;2.83;;;10.20;99.90;;;;;;5013843;23;20219;-96
2023/12/19 19:20:53;;;;;;;13.43;5.50;;;10.20;99.90;;;;;;5016019;23;20147;-96
2023/12/19 19:22:54;;;;;;;5.68;3.38;;;10.20;99.90;;;;;;5014819;23;20162;-96
2023/12/19 19:24:56;;;;;;;7.05;3.53;;;10.20;99.90;;;;;;5037755;23;20171;-95
2023/12/19 19:27:08;;;;;;;7.18;4.07;;;10.20;99.90;;;;;;5012179;23;20159;-95
2023/12/19 19:29:21;;;;;;;5.85;3.28;;;10.10;99.90;;;;;;5013462;23;20151;-96
2023/12/19 19:31:46;;;;;;;8.50;4.43;;;10.00;99.90;;;;;;5036734;23;20230;-96
2023/12/19 19:33:47;;;;;;;11.13;4.03;;;9.90;99.90;;;;;;4983663;23;20223;-96
2023/12/19 19:35:48;;;;;;;9.77;4.57;;;9.90;99.90;;;;;;4981574;23;20176;-96
2023/12/19 19:37:50;;;;;;;8.60;4.40;;;9.80;99.90;;;;;;5004923;23;20615;-95
2023/12/19 19:39:53;;;;;;;6.50;3.85;;;10.00;99.90;;;;;;4959915;23;20664;-96
2023/12/19 19:41:59;;;;;;;8.60;4.32;;;10.10;99.90;;;;;;5030981;23;20168;-96
2023/12/19 19:44:08;;;;;;;8.80;3.55;;;10.10;99.90;;;;;;5006780;23;20155;-95
2023/12/19 19:46:11;;;;;;;6.53;2.97;;;9.90;99.90;;;;;;5000603;23;20175;-95
2023/12/19 19:48:17;;;;;;;11.38;5.88;;;9.90;99.90;;;;;;5007042;23;20163;-95
2023/12/19 19:50:21;;;;;;;11.43;5.03;;;9.80;99.90;;;;;;4980679;23;20152;-96
2023/12/19 19:52:28;;;;;;;9.70;4.75;;;9.70;99.90;;;;;;4982954;23;20157;-96
2023/12/19 19:54:29;;;;;;;27.23;11.93;;;9.80;99.90;;;;;;5030405;23;20154;-95
2023/12/19 19:56:33;;;;;;;13.20;6.47;;;9.80;99.90;;;;;;5007804;23;20250;-96
2023/12/19 19:58:35;;;;;;;12.30;6.25;;;9.80;99.90;;;;;;4984823;23;20607;-94
2023/12/19 20:00:39;;;;;;;19.50;9.55;;;9.80;99.90;;;;;;5009503;23;20219;-96
2023/12/19 20:02:42;;;;;;;11.68;6.90;;;9.90;99.90;;;;;;4983399;23;20228;-95
2023/12/19 20:04:47;;;;;;;13.63;5.88;;;9.80;99.90;;;;;;5006720;23;20179;-94
2023/12/19 20:06:48;;;;;;;9.35;4.78;;;10.00;99.90;;;;;;4982590;23;20197;-95
2023/12/19 20:08:56;;;;;;;6.90;3.55;;;10.00;99.90;;;;;;5006817;23;20166;-96
2023/12/19 20:11:03;;;;;;;10.20;4.25;;;10.10;99.90;;;;;;4984215;23;20183;-96
2023/12/19 20:13:04;;;;;;;8.40;4.15;;;10.10;99.90;;;;;;4981259;23;20195;-94
2023/12/19 20:15:11;;;;;;;8.70;3.70;;;9.90;99.90;;;;;;5007352;23;20258;-96
2023/12/19 20:17:14;;;;;;;9.05;3.88;;;10.00;99.90;;;;;;5008967;23;20186;-96
2023/12/19 20:19:29;;;;;;;14.80;3.50;;;10.00;99.90;;;;;;5007734;23;20228;-95
2023/12/19 20:21:42;;;;;;;7.35;2.83;;;10.00;99.90;;;;;;4983456;23;20156;-96
2023/12/19 20:23:43;;;;;;;4.25;2.60;;;9.90;99.90;;;;;;4984749;23;20188;-96
2023/12/19 20:25:50;;;;;;;13.00;5.70;;;9.70;99.90;;;;;;5003214;23;20180;-95
2023/12/19 20:27:56;;;;;;;12.90;5.60;;;9.70;99.90;;;;;;5006917;23;20219;-96
2023/12/19 20:30:05;;;;;;;5.10;2.90;;;9.70;99.90;;;;;;4984678;23;20596;-95
2023/12/19 20:32:11;;;;;;;8.07;4.22;;;9.70;99.90;;;;;;4984408;23;20156;-96
2023/12/19 20:34:21;;;;;;;8.40;4.38;;;9.70;99.90;;;;;;5030445;23;20158;-96
2023/12/19 20:36:33;;;;;;;6.82;3.97;;;10.00;99.90;;;;;;4982409;23;20156;-95
2023/12/19 20:38:44;;;;;;;11.30;4.40;;;9.90;99.90;;;;;;4984990;23;20194;-95
2023/12/19 20:41:15;;;;;;;7.85;3.25;;;9.80;99.90;;;;;;5006187;23;20171;-95
2023/12/19 20:43:27;;;;;;;15.40;8.57;;;10.00;99.90;;;;;;5005713;23;20155;-96
2023/12/19 20:45:28;;;;;;;13.95;6.93;;;9.80;99.90;;;;;;5013450;23;20176;-96
2023/12/19 20:47:33;;;;;;;36.83;21.48;;;9.70;99.90;;;;;;5015698;23;20152;-96
2023/12/19 20:49:39;;;;;;;8.07;4.07;;;9.50;99.90;;;;;;5015547;23;20331;-96
2023/12/19 20:52:01;;;;;;;10.63;6.47;;;9.60;99.90;;;;;;5040861;23;20198;-96
2023/12/19 20:54:11;;;;;;;30.83;15.13;;;9.70;99.90;;;;;;5015004;23;20190;-96
2023/12/19 20:56:14;;;;;;;12.55;5.30;;;9.60;99.90;;;;;;4990660;23;20601;-95
2023/12/19 20:58:15;;;;;;;16.45;9.45;;;9.60;99.90;;;;;;4990775;23;20759;-95
2023/12/19 21:00:18;;;;;;;6.03;3.25;;;9.50;99.90;;;;;;4990405;23;20229;-95
2023/12/19 21:02:19;;;;;;;8.07;2.63;;;9.60;99.90;;;;;;4990819;23;20168;-94
2023/12/19 21:04:22;;;;;;;6.03;3.17;;;9.70;99.90;;;;;;4990581;23;20157;-96
2023/12/19 21:06:23;;;;;;;6.72;3.28;;;9.80;99.90;;;;;;5014500;23;20182;-95
2023/12/19 21:08:26;;;;;;;5.88;3.22;;;9.90;99.90;;;;;;5014462;23;20143;-95
2023/12/19 21:10:28;;;;;;;6.22;3.05;;;10.00;99.90;;;;;;4991867;23;20231;-96
2023/12/19 21:12:31;;;;;;;4.65;2.78;;;9.90;99.90;;;;;;4992758;23;20163;-95
2023/12/19 21:14:32;;;;;;;4.75;3.03;;;9.60;99.90;;;;;;5014882;23;20211;-95
2023/12/19 21:16:33;;;;;;;7.43;2.65;;;9.60;99.90;;;;;;5015122;23;20178;-94
2023/12/19 21:18:39;;;;;;;5.40;2.58;;;9.70;99.90;;;;;;4991702;23;20159;-95
2023/12/19 21:20:45;;;;;;;4.85;3.03;;;9.50;99.90;;;;;;5014105;23;20172;-96
2023/12/19 21:22:46;;;;;;;3.08;1.92;;;9.60;99.90;;;;;;4990486;23;20155;-94
2023/12/19 21:24:47;;;;;;;5.70;2.22;;;9.70;99.90;;;;;;5013834;23;20618;-96
2023/12/19 21:26:49;;;;;;;4.07;2.33;;;9.80;99.90;;;;;;4991621;23;20152;-95
2023/12/19 21:28:50;;;;;;;3.03;1.33;;;9.70;99.90;;;;;;4990011;23;20140;-95
2023/12/19 21:30:51;;;;;;;3.97;2.08;;;9.50;99.90;;;;;;4991148;23;20153;-96
2023/12/19 21:32:51;;;;;;;8.18;2.30;;;9.50;99.90;;;;;;4989605;23;20187;-95
2023/12/19 21:34:54;;;;;;;6.07;2.25;;;9.60;99.90;;;;;;4991086;23;20156;-95
2023/12/19 21:36:57;;;;;;;4.47;1.98;;;9.70;99.90;;;;;;4991349;23;20160;-96
2023/12/19 21:38:59;;;;;;;3.70;1.70;;;9.50;99.90;;;;;;5014763;23;20152;-95
2023/12/19 21:41:04;;;;;;;9.18;2.22;;;9.50;99.90;;;;;;5014982;23;20143;-95
2023/12/19 21:43:05;;;;;;;5.03;2.63;;;9.50;99.90;;;;;;4992564;23;20152;-96
2023/12/19 21:45:07;;;;;;;7.40;2.22;;;9.50;99.90;;;;;;4992369;23;20187;-96
2023/12/19 21:47:08;;;;;;;2.15;1.00;;;9.40;99.90;;;;;;4990037;23;20152;-95
2023/12/19 21:49:08;;;;;;;5.65;2.30;;;9.30;99.90;;;;;;5014159;23;20223;-95
2023/12/19 21:51:11;;;;;;;6.55;2.72;;;9.40;99.90;;;;;;4991654;23;20157;-95
2023/12/19 21:53:13;;;;;;;4.45;1.70;;;9.40;99.90;;;;;;5013752;23;20166;-96
2023/12/19 21:55:14;;;;;;;3.63;2.17;;;9.30;99.90;;;;;;5012693;23;20176;-95
2023/12/19 21:57:15;;;;;;;4.20;2.15;;;9.40;99.90;;;;;;5011659;23;20190;-95
2023/12/19 21:59:15;;;;;;;9.35;3.22;;;9.50;99.90;;;;;;4988815;23;20192;-95
2023/12/19 22:01:16;;;;;;;4.35;1.77;;;9.40;99.90;;;;;;4989963;23;20152;-96
2023/12/19 22:03:17;;;;;;;5.57;2.38;;;9.40;99.90;;;;;;4989382;23;20175;-95
2023/12/19 22:05:18;;;;;;;3.03;1.80;;;9.50;99.90;;;;;;5011402;23;20176;-96
2023/12/19 22:07:19;;;;;;;2.40;1.50;;;9.40;99.90;;;;;;5010922;23;20159;-96
2023/12/19 22:09:20;;;;;;;5.03;2.40;;;9.50;99.90;;;;;;4984698;23;20167;-95
2023/12/19 22:11:23;;;;;;;3.33;1.27;;;9.20;99.90;;;;;;4986158;23;20182;-95
2023/12/19 22:13:24;;;;;;;5.70;2.75;;;9.00;99.90;;;;;;5008829;23;20152;-95
2023/12/19 22:15:25;;;;;;;2.53;1.33;;;8.90;99.90;;;;;;4985251;23;20204;-96
2023/12/19 22:17:26;;;;;;;5.63;0.93;;;8.70;99.90;;;;;;4983529;23;20168;-95
2023/12/19 22:19:27;;;;;;;4.07;1.20;;;8.60;99.90;;;;;;5006725;23;20250;-93
2023/12/19 22:21:28;;;;;;;9.00;1.58;;;8.50;99.90;;;;;;5007785;23;20152;-96
2023/12/19 22:23:29;;;;;;;3.25;1.58;;;8.60;99.90;;;;;;4984060;23;20183;-95
2023/12/19 22:25:29;;;;;;;2.13;0.88;;;8.60;99.90;;;;;;4983707;23;20183;-94
2023/12/19 22:27:30;;;;;;;6.63;1.15;;;8.50;99.90;;;;;;4982114;23;20188;-95
2023/12/19 22:29:31;;;;;;;8.20;0.50;;;8.30;99.90;;;;;;5007511;23;20164;-95
2023/12/19 22:31:34;;;;;;;3.55;0.52;;;8.40;99.90;;;;;;4981643;23;20260;-96
2023/12/19 22:33:36;;;;;;;0.55;0.30;;;8.40;99.90;;;;;;4981834;23;20544;-95
2023/12/19 22:35:40;;;;;;;2.63;0.88;;;8.20;99.90;;;;;;5002751;23;20176;-96
2023/12/19 22:37:41;;;;;;;1.15;0.63;;;8.00;99.90;;;;;;4982575;23;20167;-94
2023/12/19 22:39:42;;;;;;;3.58;0.77;;;8.10;99.90;;;;;;4981850;23;20195;-95
2023/12/19 22:41:42;;;;;;;4.72;0.77;;;8.30;99.90;;;;;;4982627;23;20176;-96
2023/12/19 22:43:46;;;;;;;9.20;1.17;;;8.30;99.90;;;;;;5006477;23;20187;-96
2023/12/19 22:45:46;;;;;;;3.38;0.45;;;8.30;99.90;;;;;;4983830;23;20235;-96
2023/12/19 22:47:47;;;;;;;5.68;0.60;;;8.10;99.90;;;;;;5007161;23;20173;-96
2023/12/19 22:49:48;;;;;;;3.92;0.60;;;8.20;99.90;;;;;;4983242;23;20153;-94
2023/12/19 22:51:52;;;;;;;1.55;0.47;;;8.30;99.90;;;;;;5006092;23;20152;-96
2023/12/19 22:53:53;;;;;;;3.47;0.28;;;8.20;99.90;;;;;;4982241;23;20163;-96
2023/12/19 22:55:57;;;;;;;2.60;0.73;;;8.10;99.90;;;;;;5006751;23;20254;-96
2023/12/19 22:57:58;;;;;;;6.50;0.35;;;7.90;99.90;;;;;;4997629;23;20199;-96
2023/12/19 23:00:02;;;;;;;3.13;0.40;;;7.70;99.90;;;;;;4975746;23;20648;-96
2023/12/19 23:02:03;;;;;;;4.57;0.68;;;7.70;99.90;;;;;;4999720;23;20148;-95
2023/12/19 23:04:06;;;;;;;8.82;1.27;;;7.90;99.90;;;;;;4977744;23;20167;-95
2023/12/19 23:06:16;;;;;;;3.20;0.47;;;7.60;99.90;;;;;;4978693;23;20289;-95
2023/12/19 23:08:17;;;;;;;1.20;0.38;;;7.70;99.90;;;;;;4979429;23;20156;-95
2023/12/19 23:10:21;;;;;;;0.50;0.22;;;7.80;99.90;;;;;;5001534;23;20176;-95
2023/12/19 23:12:22;;;;;;;10.90;1.23;;;7.90;99.90;;;;;;4957567;23;20157;-95
2023/12/19 23:14:26;;;;;;;2.90;0.47;;;7.80;99.90;;;;;;5004073;23;20162;-95
2023/12/19 23:16:29;;;;;;;4.07;0.75;;;7.90;99.90;;;;;;4981254;23;20176;-94
2023/12/19 23:18:48;;;;;;;0.52;0.32;;;7.60;99.90;;;;;;5003009;23;20152;-94
2023/12/19 23:20:49;;;;;;;4.28;1.15;;;7.70;99.90;;;;;;4976678;23;20152;-96
2023/12/19 23:22:50;;;;;;;1.55;1.25;;;7.70;99.90;;;;;;4976783;23;20156;-95
2023/12/19 23:24:52;;;;;;;2.42;0.77;;;7.70;99.90;;;;;;4977291;23;20573;-96
2023/12/19 23:26:57;;;;;;;2.60;1.13;;;7.80;99.90;;;;;;4977143;23;20176;-96
2023/12/19 23:28:58;;;;;;;3.63;1.02;;;7.60;99.90;;;;;;5000863;23;20702;-95
2023/12/19 23:30:59;;;;;;;2.10;1.00;;;7.60;99.90;;;;;;4978147;23;20156;-95
2023/12/19 23:33:04;;;;;;;3.30;0.35;;;7.70;99.90;;;;;;4975318;23;20523;-96
2023/12/19 23:35:05;;;;;;;0.25;0.20;;;7.60;99.90;;;;;;4975825;23;20172;-95
2023/12/19 23:37:24;;;;;;;7.93;0.80;;;7.50;99.90;;;;;;4980043;23;20164;-95
2023/12/19 23:39:29;;;;;;;2.97;1.15;;;7.50;99.90;;;;;;4977531;23;20196;-95
2023/12/19 23:41:30;;;;;;;4.00;1.08;;;7.40;99.90;;;;;;5002760;23;20140;-95
2023/12/19 23:43:32;;;;;;;1.15;0.60;;;7.40;99.90;;;;;;4975354;23;20194;-96
2023/12/19 23:45:35;;;;;;;4.10;0.82;;;7.30;99.90;;;;;;4978442;23;20263;-96
2023/12/19 23:47:38;;;;;;;6.90;0.85;;;7.40;99.90;;;;;;4977185;23;20202;-96
2023/12/19 23:49:41;;;;;;;1.42;0.82;;;7.30;99.90;;;;;;4977674;23;20188;-95
2023/12/19 23:51:42;;;;;;;4.97;0.60;;;7.30;99.90;;;;;;4998812;23;20189;-96
2023/12/19 23:53:45;;;;;;;0.90;0.52;;;7.30;99.90;;;;;;4979148;23;20156;-95
2023/12/19 23:55:49;;;;;;;3.35;0.77;;;7.50;99.90;;;;;;4977253;23;20180;-96
2023/12/19 23:57:54;;;;;;;1.20;0.50;;;7.50;99.90;;;;;;4999731;23;20607;-96
2023/12/19 23:59:59;;;;;;;2.92;0.73;;;7.50;99.90;;;;;;4976189;23;20196;-96
